Time;durP1;ratioP1;P1;durP2;ratioP2;P2;SDS_P1;SDS_P2;PMS_P1;PMS_P2;Temp;Humidity;BMP_temperature;BMP_pressure;BME280_temperature;BME280_humidity;BME280_pressure;Samples;Min_cycle;Max_cycle;Signal;HPM_P1;HPM_P2
2021/09/24 00:01:09;;;;;;;4.88;2.00;;;22.40;53.80;;;;;;5125673;28;20053;-57
2021/09/24 00:03:35;;;;;;;3.45;2.28;;;22.30;53.90;;;;;;5131558;28;20038;-52
2021/09/24 00:06:01;;;;;;;2.15;1.92;;;22.30;54.00;;;;;;5131817;28;20033;-54
2021/09/24 00:08:27;;;;;;;2.20;1.70;;;22.40;54.10;;;;;;5133366;27;20031;-55
2021/09/24 00:10:54;;;;;;;2.03;1.65;;;22.40;54.20;;;;;;5135327;27;20100;-54
2021/09/24 00:13:19;;;;;;;3.40;1.92;;;22.40;54.10;;;;;;5135185;27;20061;-55
2021/09/24 00:15:45;;;;;;;2.75;1.92;;;22.40;54.20;;;;;;5135309;27;20063;-55
2021/09/24 00:18:16;;;;;;;2.38;1.77;;;22.40;54.20;;;;;;5135218;27;20031;-55
2021/09/24 00:20:42;;;;;;;3.85;2.13;;;22.40;54.20;;;;;;5135784;27;20068;-54
2021/09/24 00:23:08;;;;;;;2.80;2.00;;;22.40;54.30;;;;;;5135666;27;20035;-57
2021/09/24 00:25:33;;;;;;;1.85;1.60;;;22.30;54.20;;;;;;5134856;27;20157;-52
2021/09/24 00:28:01;;;;;;;2.40;1.83;;;22.30;54.10;;;;;;5134840;27;20023;-51
2021/09/24 00:30:27;;;;;;;2.33;1.70;;;22.30;54.20;;;;;;5134240;27;20113;-51
2021/09/24 00:32:53;;;;;;;2.70;2.28;;;22.30;54.40;;;;;;5134691;27;20110;-48
2021/09/24 00:35:18;;;;;;;2.28;1.50;;;22.30;54.40;;;;;;5134469;27;20072;-54
2021/09/24 00:37:44;;;;;;;1.73;1.48;;;22.30;54.40;;;;;;5116894;27;20027;-55
2021/09/24 00:40:10;;;;;;;2.10;1.77;;;22.30;54.40;;;;;;5135765;27;20030;-53
2021/09/24 00:42:37;;;;;;;2.55;1.88;;;22.30;54.40;;;;;;5133686;27;20043;-56
2021/09/24 00:45:04;;;;;;;1.85;1.60;;;22.30;54.50;;;;;;5134922;27;20094;-57
2021/09/24 00:47:30;;;;;;;2.00;1.60;;;22.30;54.50;;;;;;5134388;27;20226;-56
2021/09/24 00:49:56;;;;;;;2.20;2.00;;;22.30;54.50;;;;;;5135946;27;20539;-57
2021/09/24 00:52:22;;;;;;;2.95;2.10;;;22.30;54.30;;;;;;5134722;27;20019;-57
2021/09/24 00:54:50;;;;;;;2.70;1.92;;;22.30;53.70;;;;;;5135134;27;20034;-57
2021/09/24 00:57:17;;;;;;;2.05;1.80;;;22.20;53.50;;;;;;5134347;27;20034;-58
2021/09/24 00:59:42;;;;;;;2.55;1.80;;;22.20;53.10;;;;;;5134487;27;20059;-57
2021/09/24 01:02:08;;;;;;;2.33;1.80;;;22.20;53.50;;;;;;5134714;27;20408;-57
2021/09/24 01:04:34;;;;;;;2.92;1.92;;;22.20;53.60;;;;;;5134293;27;20135;-57
2021/09/24 01:07:00;;;;;;;4.13;2.40;;;22.20;53.50;;;;;;5134096;27;20027;-57
2021/09/24 01:09:26;;;;;;;2.70;2.00;;;22.20;53.50;;;;;;5133776;27;20500;-57
2021/09/24 01:11:52;;;;;;;2.72;1.92;;;22.20;53.50;;;;;;5134777;27;20141;-58
2021/09/24 01:14:18;;;;;;;2.80;2.22;;;22.20;53.60;;;;;;5133491;27;20076;-57
2021/09/24 01:16:44;;;;;;;2.00;1.65;;;22.20;53.60;;;;;;5133959;27;20055;-57
2021/09/24 01:19:10;;;;;;;3.45;1.88;;;22.10;53.60;;;;;;5133665;27;20489;-57
2021/09/24 01:21:41;;;;;;;2.65;1.98;;;22.10;53.50;;;;;;5134606;27;20091;-58
2021/09/24 01:24:07;;;;;;;2.45;2.03;;;22.20;53.60;;;;;;5116098;27;20461;-57
2021/09/24 01:26:32;;;;;;;3.40;2.03;;;22.10;53.60;;;;;;5133883;27;20359;-58
2021/09/24 01:28:59;;;;;;;2.67;2.17;;;22.10;53.60;;;;;;5134057;27;20105;-58
2021/09/24 01:31:26;;;;;;;2.03;1.73;;;22.10;53.60;;;;;;5133168;27;20460;-57
2021/09/24 01:33:52;;;;;;;3.10;2.00;;;22.10;53.60;;;;;;5134559;27;20171;-57
2021/09/24 01:36:17;;;;;;;2.33;2.05;;;22.10;53.60;;;;;;5133265;27;20033;-57
2021/09/24 01:38:43;;;;;;;2.50;1.90;;;22.10;53.50;;;;;;5134161;27;20034;-57
2021/09/24 01:41:09;;;;;;;2.30;1.80;;;22.10;53.60;;;;;;5134234;27;20106;-57
2021/09/24 01:43:36;;;;;;;2.53;2.20;;;22.10;53.60;;;;;;5133472;27;20035;-57
2021/09/24 01:46:04;;;;;;;2.78;2.38;;;22.10;53.60;;;;;;5134176;27;20032;-57
2021/09/24 01:48:30;;;;;;;2.20;2.00;;;22.10;53.60;;;;;;5133426;27;20038;-57
2021/09/24 01:50:55;;;;;;;2.40;2.05;;;22.10;53.60;;;;;;5133692;27;20027;-58
2021/09/24 01:53:22;;;;;;;2.42;1.98;;;22.10;53.50;;;;;;5133078;27;20027;-58
2021/09/24 01:55:47;;;;;;;2.78;2.10;;;22.10;53.50;;;;;;5134159;27;20023;-57
2021/09/24 01:58:13;;;;;;;2.00;1.80;;;22.10;53.60;;;;;;5133736;27;20027;-57
2021/09/24 02:00:39;;;;;;;3.63;2.05;;;22.10;54.20;;;;;;5114461;27;20046;-57
2021/09/24 02:03:05;;;;;;;2.00;1.80;;;22.10;54.20;;;;;;5131372;27;20502;-57
2021/09/24 02:05:31;;;;;;;3.58;2.25;;;22.10;53.60;;;;;;5114698;27;20106;-57
2021/09/24 02:07:56;;;;;;;2.30;1.90;;;22.10;53.50;;;;;;5133894;27;20117;-57
2021/09/24 02:10:22;;;;;;;2.58;2.00;;;22.10;53.60;;;;;;5132341;27;20027;-57
2021/09/24 02:12:48;;;;;;;2.60;2.15;;;22.10;53.60;;;;;;5133594;27;20023;-58
2021/09/24 02:15:15;;;;;;;2.92;1.90;;;22.10;53.60;;;;;;5133498;27;20030;-57
2021/09/24 02:17:41;;;;;;;2.85;2.17;;;22.10;53.70;;;;;;5132682;27;20479;-57
2021/09/24 02:20:07;;;;;;;2.25;1.70;;;22.10;53.60;;;;;;5133424;27;20023;-57
2021/09/24 02:22:32;;;;;;;3.03;1.80;;;22.00;53.60;;;;;;5132418;27;20023;-57
2021/09/24 02:24:58;;;;;;;2.70;1.90;;;22.00;53.60;;;;;;5133807;27;20026;-57
2021/09/24 02:27:24;;;;;;;2.45;2.03;;;22.10;53.50;;;;;;5132666;27;20031;-57
2021/09/24 02:29:49;;;;;;;2.50;2.17;;;22.10;53.60;;;;;;5132958;27;20025;-57
2021/09/24 02:32:15;;;;;;;2.20;1.92;;;22.00;53.60;;;;;;5133101;27;20487;-57
2021/09/24 02:34:41;;;;;;;2.75;2.08;;;22.10;53.60;;;;;;5132305;27;20031;-57
2021/09/24 02:37:06;;;;;;;2.42;1.77;;;22.10;53.70;;;;;;5133221;27;20031;-57
2021/09/24 02:39:32;;;;;;;2.40;2.08;;;22.10;53.60;;;;;;5132227;27;20055;-57
2021/09/24 02:41:58;;;;;;;2.55;1.88;;;22.10;53.60;;;;;;5133351;27;20062;-57
2021/09/24 02:44:23;;;;;;;2.72;2.15;;;22.10;53.50;;;;;;5131981;27;20099;-57
2021/09/24 02:46:49;;;;;;;4.03;2.10;;;22.00;53.50;;;;;;5132922;27;20372;-57
2021/09/24 02:49:15;;;;;;;2.45;1.75;;;22.10;53.50;;;;;;5132128;27;20023;-57
2021/09/24 02:51:41;;;;;;;2.67;1.83;;;22.10;53.50;;;;;;5132614;27;20031;-57
2021/09/24 02:54:06;;;;;;;2.70;2.28;;;22.00;53.40;;;;;;5133010;27;20023;-57
2021/09/24 02:56:32;;;;;;;3.05;2.65;;;22.00;53.40;;;;;;5131792;27;20031;-57
2021/09/24 02:58:58;;;;;;;4.88;1.88;;;22.00;53.40;;;;;;5133059;27;20523;-57
2021/09/24 03:01:23;;;;;;;2.13;1.92;;;22.00;53.40;;;;;;5131849;27;20479;-57
2021/09/24 03:03:49;;;;;;;4.35;2.08;;;22.00;53.40;;;;;;5136909;27;20035;-57
2021/09/24 03:06:15;;;;;;;2.60;2.08;;;22.00;53.30;;;;;;5133472;27;20030;-57
2021/09/24 03:08:41;;;;;;;2.40;1.90;;;22.00;53.40;;;;;;5131801;27;20023;-57
2021/09/24 03:11:07;;;;;;;2.92;2.20;;;22.00;53.50;;;;;;5132239;27;20019;-57
2021/09/24 03:13:32;;;;;;;2.67;2.10;;;22.00;53.50;;;;;;5131705;27;20068;-57
2021/09/24 03:15:59;;;;;;;2.42;1.88;;;22.00;53.50;;;;;;5132458;27;20023;-57
2021/09/24 03:18:25;;;;;;;2.25;1.92;;;22.00;53.60;;;;;;5131260;27;20118;-57
2021/09/24 03:20:52;;;;;;;2.95;2.03;;;22.00;53.50;;;;;;5132135;27;20106;-57
2021/09/24 03:23:19;;;;;;;3.42;1.95;;;22.00;53.50;;;;;;5132154;27;20041;-57
2021/09/24 03:25:49;;;;;;;2.83;2.40;;;22.00;53.50;;;;;;5113851;27;20031;-57
2021/09/24 03:28:15;;;;;;;4.38;1.98;;;22.00;53.40;;;;;;5132940;27;20130;-57
2021/09/24 03:30:42;;;;;;;2.65;2.00;;;22.00;53.40;;;;;;5131500;27;20031;-57
2021/09/24 03:33:07;;;;;;;2.72;2.38;;;22.00;53.40;;;;;;5132117;27;20045;-57
2021/09/24 03:35:33;;;;;;;2.72;2.03;;;22.00;53.50;;;;;;5131377;27;20532;-57
2021/09/24 03:37:59;;;;;;;2.03;1.73;;;22.00;53.50;;;;;;5132143;28;20059;-57
2021/09/24 03:40:24;;;;;;;2.10;1.90;;;22.00;53.50;;;;;;5131371;28;20076;-57
2021/09/24 03:42:50;;;;;;;2.80;2.10;;;22.00;53.50;;;;;;5133482;27;20458;-57
2021/09/24 03:45:16;;;;;;;3.05;2.55;;;22.00;53.60;;;;;;5136002;27;20019;-57
2021/09/24 03:47:41;;;;;;;3.72;1.92;;;22.00;53.50;;;;;;5132275;27;20046;-57
2021/09/24 03:50:08;;;;;;;3.33;2.05;;;22.00;53.50;;;;;;5135978;27;20027;-57
2021/09/24 03:52:34;;;;;;;2.88;2.00;;;22.00;53.50;;;;;;5135476;27;20035;-57
2021/09/24 03:55:01;;;;;;;2.47;2.08;;;22.00;53.50;;;;;;5117606;27;20023;-57
2021/09/24 03:57:26;;;;;;;2.22;1.92;;;22.00;53.50;;;;;;5135580;27;20060;-57
2021/09/24 03:59:55;;;;;;;1.92;1.70;;;22.00;53.50;;;;;;5136993;27;20120;-56
2021/09/24 04:02:21;;;;;;;3.13;2.00;;;22.00;53.60;;;;;;5139287;27;20031;-57
2021/09/24 04:04:47;;;;;;;2.78;2.00;;;22.00;53.70;;;;;;5136307;27;20031;-57
2021/09/24 04:07:13;;;;;;;3.60;2.20;;;21.90;53.60;;;;;;5136378;27;20055;-57
2021/09/24 04:09:38;;;;;;;3.72;2.05;;;22.00;53.50;;;;;;5135057;27;20027;-57
2021/09/24 04:12:05;;;;;;;3.05;1.92;;;22.00;53.50;;;;;;5135650;27;20061;-57
2021/09/24 04:14:30;;;;;;;2.72;2.22;;;22.00;53.50;;;;;;5135444;27;20499;-57
2021/09/24 04:16:56;;;;;;;2.60;2.03;;;22.00;53.40;;;;;;5135870;27;20024;-57
2021/09/24 04:19:22;;;;;;;3.42;1.80;;;22.00;53.50;;;;;;5134762;27;20031;-57
2021/09/24 04:21:48;;;;;;;2.70;1.85;;;22.00;53.50;;;;;;5135560;27;20035;-57
2021/09/24 04:24:14;;;;;;;2.38;2.13;;;22.00;53.50;;;;;;5135987;27;20080;-58
2021/09/24 04:26:39;;;;;;;2.63;2.00;;;22.00;53.30;;;;;;5116503;27;20261;-57
2021/09/24 04:29:07;;;;;;;2.88;1.98;;;22.00;53.70;;;;;;5135674;27;20474;-57
2021/09/24 04:31:33;;;;;;;4.38;2.20;;;22.00;53.70;;;;;;5135422;27;20035;-57
2021/09/24 04:33:59;;;;;;;2.65;1.92;;;22.00;53.50;;;;;;5135291;27;20472;-57
2021/09/24 04:36:24;;;;;;;2.90;2.03;;;22.00;53.50;;;;;;5134763;27;20031;-57
2021/09/24 04:38:51;;;;;;;6.05;3.30;;;22.00;53.40;;;;;;5124566;27;20027;-57
2021/09/24 04:41:16;;;;;;;2.72;2.20;;;22.00;53.40;;;;;;5118242;27;20042;-57
2021/09/24 04:43:42;;;;;;;2.78;2.13;;;22.00;54.10;;;;;;5134630;27;20031;-57
2021/09/24 04:46:08;;;;;;;2.83;1.75;;;22.00;53.60;;;;;;5134937;27;20041;-57
2021/09/24 04:48:33;;;;;;;2.95;1.98;;;22.00;53.60;;;;;;5134752;27;20025;-57
2021/09/24 04:51:00;;;;;;;2.15;1.95;;;22.00;53.60;;;;;;5135222;27;20452;-57
2021/09/24 04:53:25;;;;;;;11.73;2.42;;;22.00;53.40;;;;;;5134419;27;20042;-57
2021/09/24 04:55:51;;;;;;;5.18;1.88;;;22.00;53.40;;;;;;5135534;27;20023;-57
2021/09/24 04:58:17;;;;;;;3.47;2.25;;;21.90;53.30;;;;;;5135272;27;20486;-57
2021/09/24 05:00:42;;;;;;;3.25;2.30;;;22.00;53.40;;;;;;5133757;27;20032;-57
2021/09/24 05:03:08;;;;;;;2.60;1.88;;;22.00;53.40;;;;;;5116256;27;20111;-57
2021/09/24 05:05:34;;;;;;;3.17;2.40;;;22.00;53.40;;;;;;5133170;27;20101;-57
2021/09/24 05:07:59;;;;;;;3.15;2.35;;;22.00;53.70;;;;;;5135248;27;20086;-57
2021/09/24 05:10:25;;;;;;;3.08;2.03;;;22.00;53.70;;;;;;5133696;27;20023;-57
2021/09/24 05:12:51;;;;;;;3.45;1.85;;;22.00;53.60;;;;;;5134738;27;20058;-57
2021/09/24 05:15:16;;;;;;;6.18;2.42;;;21.90;53.50;;;;;;5135020;27;20027;-56
2021/09/24 05:17:42;;;;;;;4.30;2.30;;;21.90;53.50;;;;;;5133332;27;20023;-57
2021/09/24 05:20:08;;;;;;;3.00;2.00;;;22.00;53.60;;;;;;5132974;27;20647;-57
2021/09/24 05:22:34;;;;;;;3.38;1.80;;;22.00;53.80;;;;;;5132341;27;20023;-57
2021/09/24 05:24:59;;;;;;;3.08;2.17;;;22.00;53.60;;;;;;5134138;27;20030;-57
2021/09/24 05:27:25;;;;;;;2.80;2.00;;;22.00;53.70;;;;;;5132713;27;20049;-57
2021/09/24 05:29:51;;;;;;;4.90;2.35;;;22.00;53.70;;;;;;5133629;27;20031;-57
2021/09/24 05:32:17;;;;;;;5.40;2.40;;;22.00;53.90;;;;;;5134454;27;20039;-57
2021/09/24 05:34:43;;;;;;;5.90;2.40;;;22.00;53.80;;;;;;5133813;27;20108;-57
2021/09/24 05:37:09;;;;;;;4.25;2.28;;;22.00;53.80;;;;;;5134181;27;20102;-57
2021/09/24 05:39:35;;;;;;;2.85;2.15;;;22.00;53.80;;;;;;5133817;27;20031;-57
2021/09/24 05:42:01;;;;;;;3.90;2.47;;;22.00;54.00;;;;;;5133716;27;20039;-57
2021/09/24 05:44:27;;;;;;;5.93;2.30;;;22.00;54.00;;;;;;5132974;27;20074;-57
2021/09/24 05:46:53;;;;;;;7.75;2.60;;;22.10;54.10;;;;;;5134068;27;20051;-57
2021/09/24 05:49:18;;;;;;;8.02;2.65;;;22.10;54.30;;;;;;5133426;27;20421;-56
2021/09/24 05:51:44;;;;;;;7.05;2.25;;;22.10;54.30;;;;;;5132944;27;20039;-53
2021/09/24 05:54:10;;;;;;;8.32;2.20;;;22.10;54.30;;;;;;5133255;27;20029;-57
2021/09/24 05:56:36;;;;;;;6.88;2.40;;;22.10;54.40;;;;;;5132569;27;20387;-54
2021/09/24 05:59:01;;;;;;;6.00;2.30;;;22.10;54.20;;;;;;5133171;27;20023;-56
2021/09/24 06:01:27;;;;;;;8.18;2.20;;;22.20;54.60;;;;;;5132976;27;20376;-57
2021/09/24 06:03:54;;;;;;;7.03;2.30;;;22.20;54.40;;;;;;5133721;27;20042;-56
2021/09/24 06:06:20;;;;;;;8.25;2.50;;;22.20;55.20;;;;;;5133503;27;20460;-56
2021/09/24 06:08:50;;;;;;;6.85;2.90;;;22.20;55.50;;;;;;5120513;27;20063;-57
2021/09/24 06:11:17;;;;;;;8.73;2.67;;;22.20;55.40;;;;;;5132418;27;20027;-53
2021/09/24 06:13:43;;;;;;;9.90;2.80;;;22.20;55.70;;;;;;5128812;27;20031;-57
2021/09/24 06:16:08;;;;;;;8.60;2.53;;;22.20;55.70;;;;;;5088573;27;20203;-57
2021/09/24 06:18:34;;;;;;;5.20;2.20;;;22.20;55.70;;;;;;5125773;27;20027;-56
2021/09/24 06:21:02;;;;;;;5.93;2.17;;;22.20;56.30;;;;;;5133205;27;20023;-57
2021/09/24 06:23:28;;;;;;;7.72;2.42;;;22.20;56.60;;;;;;5130837;27;20092;-57
2021/09/24 06:25:54;;;;;;;6.95;2.47;;;22.20;57.00;;;;;;5132667;27;20031;-57
2021/09/24 06:28:20;;;;;;;6.03;2.10;;;22.20;57.30;;;;;;5114560;27;20051;-57
2021/09/24 06:30:45;;;;;;;6.68;2.38;;;22.20;57.10;;;;;;5131617;27;20046;-57
2021/09/24 06:33:11;;;;;;;4.65;2.67;;;22.30;57.10;;;;;;5132935;27;20106;-57
2021/09/24 06:35:37;;;;;;;5.75;2.92;;;22.30;57.00;;;;;;5132345;27;20031;-57
2021/09/24 06:38:03;;;;;;;6.40;2.28;;;22.30;57.00;;;;;;5118663;27;20370;-57
2021/09/24 06:40:28;;;;;;;7.63;2.50;;;22.30;57.10;;;;;;5132033;27;20517;-57
2021/09/24 06:42:55;;;;;;;4.82;2.15;;;22.30;57.20;;;;;;5132600;27;20042;-57
2021/09/24 06:45:21;;;;;;;4.22;2.40;;;22.30;57.20;;;;;;5121836;27;20031;-57
2021/09/24 06:47:47;;;;;;;7.93;2.83;;;22.30;57.20;;;;;;5130543;27;20026;-57
2021/09/24 06:50:13;;;;;;;7.90;2.42;;;22.30;57.30;;;;;;5132183;27;20383;-57
2021/09/24 06:52:39;;;;;;;6.05;2.90;;;22.30;57.30;;;;;;5131736;27;20049;-57
2021/09/24 06:55:05;;;;;;;4.63;2.30;;;22.40;57.40;;;;;;5132403;27;20027;-57
2021/09/24 06:57:31;;;;;;;4.80;2.42;;;22.40;57.40;;;;;;5131846;27;20047;-57
2021/09/24 06:59:57;;;;;;;4.53;3.10;;;22.30;57.40;;;;;;5131127;27;20067;-57
2021/09/24 07:02:22;;;;;;;6.15;2.40;;;22.40;57.50;;;;;;5131587;27;20042;-57
2021/09/24 07:04:49;;;;;;;5.35;2.33;;;22.40;57.50;;;;;;5131815;27;20103;-57
2021/09/24 07:07:14;;;;;;;7.22;3.17;;;22.40;57.50;;;;;;5132311;27;20408;-58
2021/09/24 07:09:40;;;;;;;5.88;1.90;;;22.40;57.50;;;;;;5131481;27;20015;-57
2021/09/24 07:12:06;;;;;;;3.97;2.10;;;22.40;57.50;;;;;;5132077;27;20072;-57
2021/09/24 07:14:32;;;;;;;7.28;2.30;;;22.40;57.50;;;;;;5121518;27;20070;-57
2021/09/24 07:16:59;;;;;;;5.32;2.40;;;22.40;57.40;;;;;;5111128;27;20023;-57
2021/09/24 07:19:25;;;;;;;2.13;1.83;;;22.40;57.50;;;;;;5132780;27;20027;-57
2021/09/24 07:21:51;;;;;;;4.18;2.30;;;22.40;57.50;;;;;;5132449;27;20033;-57
2021/09/24 07:24:17;;;;;;;4.00;2.38;;;22.40;57.40;;;;;;5132545;27;20110;-58
2021/09/24 07:26:44;;;;;;;4.97;2.55;;;22.40;57.50;;;;;;5131733;27;20451;-57
2021/09/24 07:29:09;;;;;;;3.40;2.25;;;22.40;57.30;;;;;;5133058;27;20031;-57
2021/09/24 07:31:35;;;;;;;4.30;2.53;;;22.40;57.40;;;;;;5131617;27;20035;-57
2021/09/24 07:34:01;;;;;;;4.13;2.30;;;22.40;57.40;;;;;;5132871;27;20590;-57
2021/09/24 07:36:27;;;;;;;6.22;2.10;;;22.40;57.40;;;;;;5131810;27;20492;-57
2021/09/24 07:38:53;;;;;;;3.13;2.08;;;22.40;57.40;;;;;;5131942;28;20407;-57
2021/09/24 07:41:20;;;;;;;4.50;2.42;;;22.40;57.40;;;;;;5132307;27;20027;-57
2021/09/24 07:43:49;;;;;;;4.32;2.78;;;22.40;57.40;;;;;;5131652;28;20597;-57
2021/09/24 07:46:16;;;;;;;4.70;2.58;;;22.50;57.40;;;;;;5131972;28;20054;-57
2021/09/24 07:48:42;;;;;;;4.05;2.17;;;22.40;57.50;;;;;;5131743;28;20027;-57
2021/09/24 07:51:09;;;;;;;4.88;2.40;;;22.40;57.30;;;;;;5131846;28;20563;-57
2021/09/24 07:53:35;;;;;;;3.65;2.38;;;22.40;57.40;;;;;;5131493;28;20035;-57
2021/09/24 07:56:01;;;;;;;4.53;2.42;;;22.50;57.40;;;;;;5132300;28;20512;-57
2021/09/24 07:58:27;;;;;;;5.32;2.67;;;22.50;57.40;;;;;;5131681;28;20106;-57
2021/09/24 08:00:52;;;;;;;8.93;3.28;;;22.50;57.40;;;;;;5131519;28;20055;-57
2021/09/24 08:03:18;;;;;;;4.65;2.63;;;22.50;57.40;;;;;;5132187;28;20066;-57
2021/09/24 08:05:44;;;;;;;3.17;2.08;;;22.50;57.40;;;;;;5131307;28;20084;-57
2021/09/24 08:08:09;;;;;;;2.42;1.90;;;22.50;57.30;;;;;;5131984;28;20025;-57
2021/09/24 08:10:35;;;;;;;5.03;2.42;;;22.50;57.30;;;;;;5131093;28;20055;-57
2021/09/24 08:13:01;;;;;;;3.80;2.15;;;22.50;57.30;;;;;;5131851;28;20080;-57
2021/09/24 08:15:26;;;;;;;4.90;2.30;;;22.50;57.30;;;;;;5131433;28;20031;-57
2021/09/24 08:17:52;;;;;;;2.83;2.08;;;22.50;57.40;;;;;;5132078;28;20015;-57
2021/09/24 08:20:18;;;;;;;5.30;2.40;;;22.50;57.30;;;;;;5132065;28;20023;-57
2021/09/24 08:22:44;;;;;;;5.10;2.13;;;22.50;57.90;;;;;;5130931;28;20035;-57
2021/09/24 08:25:13;;;;;;;3.35;2.13;;;22.50;57.30;;;;;;5131673;28;20479;-57
2021/09/24 08:27:40;;;;;;;3.35;2.33;;;22.50;57.20;;;;;;5110993;28;20468;-57
2021/09/24 08:30:09;;;;;;;3.50;2.17;;;22.50;57.20;;;;;;5115313;27;20031;-57
2021/09/24 08:32:37;;;;;;;3.72;2.20;;;22.50;57.20;;;;;;5134279;27;20035;-57
2021/09/24 08:35:04;;;;;;;3.00;2.30;;;22.50;57.80;;;;;;5134927;27;20118;-57
2021/09/24 08:37:30;;;;;;;3.33;2.38;;;22.50;57.20;;;;;;5135090;27;20035;-57
2021/09/24 08:39:55;;;;;;;2.20;2.00;;;22.50;57.20;;;;;;5134809;27;20030;-57
2021/09/24 08:42:21;;;;;;;4.63;2.25;;;22.50;57.20;;;;;;5135393;27;20016;-57
2021/09/24 08:44:50;;;;;;;3.75;2.30;;;22.50;57.10;;;;;;5134698;27;20597;-57
2021/09/24 08:47:16;;;;;;;3.13;2.17;;;22.50;57.10;;;;;;5134980;27;20468;-57
2021/09/24 08:49:43;;;;;;;3.45;2.25;;;22.50;57.20;;;;;;5134649;27;20031;-57
2021/09/24 08:52:08;;;;;;;4.45;2.50;;;22.50;57.10;;;;;;5135208;27;20053;-57
2021/09/24 08:54:34;;;;;;;3.72;2.50;;;22.50;57.10;;;;;;5134722;27;20035;-57
2021/09/24 08:57:00;;;;;;;3.40;2.20;;;22.50;57.10;;;;;;5135057;27;20375;-57
2021/09/24 08:59:26;;;;;;;4.22;2.40;;;22.50;57.10;;;;;;5134783;27;20027;-57
2021/09/24 09:02:04;;;;;;;3.50;2.28;;;22.50;57.40;;;;;;5134883;27;20409;-57
2021/09/24 09:04:47;;;;;;;4.15;2.30;;;22.50;57.30;;;;;;5122919;27;20028;-58
2021/09/24 09:07:15;;;;;;;4.18;1.90;;;22.50;57.10;;;;;;5134664;27;20479;-57
2021/09/24 09:09:47;;;;;;;2.78;2.10;;;22.50;57.20;;;;;;5134579;27;20023;-57
2021/09/24 09:12:14;;;;;;;3.40;2.10;;;22.50;57.10;;;;;;5134517;27;20051;-57
2021/09/24 09:14:41;;;;;;;3.60;2.17;;;22.50;57.10;;;;;;5134101;27;20042;-57
2021/09/24 09:17:50;;;;;;;2.80;2.00;;;22.60;57.10;;;;;;5134662;27;20030;-57
2021/09/24 09:20:16;;;;;;;4.88;2.80;;;22.50;57.10;;;;;;5041887;28;20045;-58
2021/09/24 09:22:44;;;;;;;3.97;1.90;;;22.50;57.00;;;;;;5050702;28;20414;-57
2021/09/24 09:25:31;;;;;;;3.33;2.25;;;22.50;57.00;;;;;;5050836;28;20056;-57
2021/09/24 09:27:59;;;;;;;2.88;2.22;;;22.50;57.00;;;;;;5051040;28;20036;-57
2021/09/24 09:30:26;;;;;;;4.22;2.50;;;22.60;57.10;;;;;;5049921;28;20048;-57
2021/09/24 09:33:04;;;;;;;2.42;2.03;;;22.60;57.10;;;;;;5052004;28;20037;-57
2021/09/24 09:35:35;;;;;;;3.78;2.35;;;22.50;57.00;;;;;;5052522;28;20025;-57
2021/09/24 09:38:01;;;;;;;4.00;2.23;;;22.60;57.00;;;;;;5050905;28;20409;-57
2021/09/24 09:40:27;;;;;;;3.22;2.17;;;22.60;57.00;;;;;;5049788;28;20040;-57
2021/09/24 09:42:57;;;;;;;3.67;2.33;;;22.60;57.10;;;;;;5050317;28;20207;-57
2021/09/24 09:45:25;;;;;;;2.63;1.88;;;22.50;57.10;;;;;;5049051;28;20041;-57
2021/09/24 09:47:51;;;;;;;3.25;1.90;;;22.60;57.10;;;;;;5047900;28;20172;-57
2021/09/24 09:50:20;;;;;;;2.63;2.08;;;22.50;57.10;;;;;;5070469;27;20028;-57
2021/09/24 09:53:16;;;;;;;2.80;2.03;;;22.50;57.10;;;;;;5133354;27;20868;-57
2021/09/24 09:55:54;;;;;;;3.30;2.10;;;22.50;57.10;;;;;;5111992;27;20035;-57
2021/09/24 09:58:22;;;;;;;3.40;1.92;;;22.50;57.20;;;;;;5133678;27;20031;-57
2021/09/24 10:01:09;;;;;;;2.00;1.70;;;22.50;57.10;;;;;;5133415;27;20035;-57
2021/09/24 10:03:47;;;;;;;2.22;1.85;;;22.50;57.20;;;;;;5133246;27;20039;-57
2021/09/24 10:06:24;;;;;;;2.08;1.75;;;22.50;57.20;;;;;;5133781;27;20023;-57
2021/09/24 10:08:51;;;;;;;2.75;2.03;;;22.40;57.20;;;;;;5132739;27;20468;-57
2021/09/24 10:11:19;;;;;;;3.08;1.88;;;22.40;57.10;;;;;;5133546;27;20027;-57
2021/09/24 10:13:52;;;;;;;5.15;2.17;;;22.40;57.10;;;;;;5132025;27;20041;-57
2021/09/24 10:16:21;;;;;;;3.13;1.88;;;22.40;57.10;;;;;;5122725;27;20156;-57
2021/09/24 10:18:47;;;;;;;6.63;2.03;;;22.40;57.10;;;;;;5132928;27;20130;-57
2021/09/24 10:21:13;;;;;;;3.47;2.00;;;22.40;57.20;;;;;;5134006;27;20164;-57
2021/09/24 10:23:39;;;;;;;2.17;1.80;;;22.40;57.20;;;;;;5132888;27;20092;-57
2021/09/24 10:26:13;;;;;;;3.38;2.30;;;22.40;57.20;;;;;;5133852;27;20035;-57
2021/09/24 10:28:40;;;;;;;2.90;2.28;;;22.40;57.30;;;;;;5114442;27;20038;-57
2021/09/24 10:31:13;;;;;;;5.93;2.30;;;22.40;57.20;;;;;;5115438;27;20035;-57
2021/09/24 10:33:47;;;;;;;3.42;2.00;;;22.40;57.40;;;;;;5133057;27;20038;-58
2021/09/24 10:36:33;;;;;;;6.43;2.30;;;22.40;57.50;;;;;;5114681;27;20026;-57
2021/09/24 10:38:59;;;;;;;3.08;2.10;;;22.40;57.50;;;;;;5133001;27;20026;-57
2021/09/24 10:41:25;;;;;;;5.20;2.15;;;22.40;57.90;;;;;;5133858;27;20031;-57
2021/09/24 10:43:54;;;;;;;4.40;2.15;;;22.40;57.80;;;;;;5132423;27;20035;-58
2021/09/24 10:46:29;;;;;;;3.70;2.53;;;22.40;58.10;;;;;;5133145;27;20476;-58
2021/09/24 10:49:16;;;;;;;3.38;2.10;;;22.40;57.90;;;;;;5132866;27;20043;-57
2021/09/24 10:51:57;;;;;;;2.83;2.20;;;22.40;57.90;;;;;;5132355;27;20046;-58
2021/09/24 10:54:25;;;;;;;4.05;2.03;;;22.40;58.00;;;;;;5133341;27;20027;-57
2021/09/24 10:57:08;;;;;;;5.93;2.35;;;22.40;58.10;;;;;;5131847;27;20589;-58
2021/09/24 10:59:34;;;;;;;3.53;2.30;;;22.40;58.20;;;;;;5132118;27;20282;-54
2021/09/24 11:02:46;;;;;;;5.40;2.70;;;22.40;58.80;;;;;;5133001;27;20031;-57
2021/09/24 11:05:12;;;;;;;5.50;2.58;;;22.40;58.30;;;;;;5127899;27;20042;-55
2021/09/24 11:07:37;;;;;;;4.30;2.47;;;22.50;58.50;;;;;;5131794;27;20539;-58
2021/09/24 11:10:05;;;;;;;4.63;2.65;;;22.50;58.70;;;;;;5133113;27;20034;-58
2021/09/24 11:12:30;;;;;;;4.30;2.40;;;22.60;58.70;;;;;;5112218;28;20036;-58
2021/09/24 11:15:12;;;;;;;3.47;2.17;;;22.60;58.80;;;;;;5117831;27;20084;-58
2021/09/24 11:17:46;;;;;;;4.10;2.17;;;22.60;58.50;;;;;;5138714;27;20375;-56
2021/09/24 11:20:32;;;;;;;4.15;2.63;;;22.60;59.00;;;;;;5126546;27;20031;-57
2021/09/24 11:22:58;;;;;;;4.38;1.80;;;22.60;58.80;;;;;;5126709;27;20166;-56
2021/09/24 11:25:24;;;;;;;3.10;1.88;;;22.60;58.90;;;;;;5134036;27;20118;-57
2021/09/24 11:27:50;;;;;;;4.57;1.95;;;22.60;59.00;;;;;;5109595;28;20131;-57
2021/09/24 11:30:23;;;;;;;4.00;1.70;;;22.50;59.00;;;;;;5113076;28;20043;-57
2021/09/24 11:32:57;;;;;;;2.60;1.73;;;22.50;59.10;;;;;;5125904;27;20062;-57
2021/09/24 11:35:40;;;;;;;3.10;2.05;;;22.60;59.00;;;;;;5132462;27;20031;-57
2021/09/24 11:38:21;;;;;;;4.45;1.92;;;22.50;59.00;;;;;;5131784;27;20110;-57
2021/09/24 11:40:55;;;;;;;4.07;2.40;;;22.60;58.90;;;;;;5132002;28;20143;-57
2021/09/24 11:43:37;;;;;;;3.88;2.00;;;22.60;59.00;;;;;;5131646;28;20039;-57
2021/09/24 11:46:24;;;;;;;3.00;1.80;;;22.60;58.90;;;;;;5132070;28;20023;-56
2021/09/24 11:48:52;;;;;;;3.08;2.03;;;22.60;59.00;;;;;;5131636;28;20030;-57
2021/09/24 11:51:21;;;;;;;3.10;2.13;;;22.60;59.10;;;;;;5129862;28;20487;-57
2021/09/24 11:53:52;;;;;;;3.30;1.85;;;22.60;59.00;;;;;;5131503;28;20122;-57
2021/09/24 11:56:31;;;;;;;2.97;1.70;;;22.60;59.00;;;;;;5132495;28;20035;-57
2021/09/24 11:59:08;;;;;;;2.17;1.38;;;22.60;59.00;;;;;;5131750;28;20115;-57
2021/09/24 12:01:34;;;;;;;2.42;2.10;;;22.60;58.90;;;;;;5131240;28;20130;-57
2021/09/24 12:04:01;;;;;;;2.60;1.92;;;22.60;58.80;;;;;;5134035;27;20479;-57
2021/09/24 12:06:29;;;;;;;3.22;2.20;;;22.60;58.80;;;;;;5136620;27;20027;-57
2021/09/24 12:09:05;;;;;;;3.83;1.98;;;22.60;58.90;;;;;;5135469;27;20034;-57
2021/09/24 12:11:46;;;;;;;2.53;1.75;;;22.60;58.70;;;;;;5118066;27;20015;-57
2021/09/24 12:14:14;;;;;;;2.78;2.00;;;22.60;58.60;;;;;;5136198;27;20031;-56
2021/09/24 12:16:41;;;;;;;4.50;2.20;;;22.70;58.70;;;;;;5135360;27;20778;-57
2021/09/24 12:19:11;;;;;;;4.47;2.05;;;22.70;59.90;;;;;;5135785;27;20478;-55
2021/09/24 12:21:53;;;;;;;4.05;2.10;;;22.70;60.70;;;;;;5125603;27;20038;-56
2021/09/24 12:24:33;;;;;;;2.90;2.25;;;22.70;60.00;;;;;;5136247;27;20118;-56
2021/09/24 12:27:33;;;;;;;3.85;1.80;;;22.70;59.80;;;;;;5135785;27;20083;-57
2021/09/24 12:30:17;;;;;;;3.50;1.85;;;22.70;59.60;;;;;;5090026;27;20492;-52
2021/09/24 12:32:43;;;;;;;2.40;1.92;;;22.70;59.80;;;;;;5126421;27;20042;-55
2021/09/24 12:35:09;;;;;;;4.15;1.98;;;22.60;59.80;;;;;;5134993;27;20031;-56
2021/09/24 12:37:36;;;;;;;2.88;2.13;;;22.70;60.00;;;;;;5135098;27;20027;-57
2021/09/24 12:40:11;;;;;;;2.90;2.20;;;22.70;60.20;;;;;;5135234;27;20528;-56
2021/09/24 12:42:41;;;;;;;1.85;1.52;;;22.70;60.10;;;;;;5135264;27;20102;-52
2021/09/24 12:45:10;;;;;;;6.35;2.00;;;22.70;60.20;;;;;;5135233;27;20063;-57
2021/09/24 12:47:38;;;;;;;3.10;2.08;;;22.70;60.20;;;;;;5135189;27;20027;-54
2021/09/24 12:50:07;;;;;;;3.58;1.92;;;22.70;60.30;;;;;;5135041;27;20027;-54
2021/09/24 12:52:34;;;;;;;4.57;2.03;;;22.70;60.10;;;;;;5134734;27;20581;-55